sensor_id;sensor_type;location;lat;lon;timestamp;P1;durP1;ratioP1;P2;durP2;ratioP2
32894;SDS011;19251;49.484;8.260;2022-10-16T00:02:34;1.65;;;1.00;;
32894;SDS011;19251;49.484;8.260;2022-10-16T00:07:36;0.93;;;0.73;;
32894;SDS011;19251;49.484;8.260;2022-10-16T00:12:38;1.67;;;1.05;;
32894;SDS011;19251;49.484;8.260;2022-10-16T00:17:41;4.50;;;1.62;;
32894;SDS011;19251;49.484;8.260;2022-10-16T00:22:43;4.70;;;0.88;;
32894;SDS011;19251;49.484;8.260;2022-10-16T00:27:45;1.55;;;0.80;;
32894;SDS011;19251;49.484;8.260;2022-10-16T00:32:47;1.58;;;1.00;;
32894;SDS011;19251;49.484;8.260;2022-10-16T00:37:49;2.15;;;0.80;;
32894;SDS011;19251;49.484;8.260;2022-10-16T00:42:51;4.60;;;1.02;;
32894;SDS011;19251;49.484;8.260;2022-10-16T00:47:54;1.23;;;0.95;;
32894;SDS011;19251;49.484;8.260;2022-10-16T00:52:57;3.12;;;1.42;;
32894;SDS011;19251;49.484;8.260;2022-10-16T00:58:00;2.60;;;1.37;;
32894;SDS011;19251;49.484;8.260;2022-10-16T01:03:02;3.05;;;1.45;;
32894;SDS011;19251;49.484;8.260;2022-10-16T01:08:34;4.80;;;1.42;;
32894;SDS011;19251;49.484;8.260;2022-10-16T01:13:48;2.27;;;1.13;;
32894;SDS011;19251;49.484;8.260;2022-10-16T01:18:57;1.98;;;1.08;;
32894;SDS011;19251;49.484;8.260;2022-10-16T01:29:37;4.20;;;1.40;;
32894;SDS011;19251;49.484;8.260;2022-10-16T01:34:54;1.77;;;0.80;;
32894;SDS011;19251;49.484;8.260;2022-10-16T01:40:13;2.85;;;0.82;;
32894;SDS011;19251;49.484;8.260;2022-10-16T01:45:18;1.05;;;0.95;;
32894;SDS011;19251;49.484;8.260;2022-10-16T01:50:21;1.23;;;0.80;;
32894;SDS011;19251;49.484;8.260;2022-10-16T01:55:29;2.60;;;0.70;;
32894;SDS011;19251;49.484;8.260;2022-10-16T02:00:36;1.20;;;1.00;;
32894;SDS011;19251;49.484;8.260;2022-10-16T02:05:45;3.15;;;0.93;;
32894;SDS011;19251;49.484;8.260;2022-10-16T02:10:58;1.83;;;0.55;;
32894;SDS011;19251;49.484;8.260;2022-10-16T02:16:02;1.20;;;1.00;;
32894;SDS011;19251;49.484;8.260;2022-10-16T02:21:19;1.58;;;1.25;;
32894;SDS011;19251;49.484;8.260;2022-10-16T02:26:30;4.20;;;1.50;;
32894;SDS011;19251;49.484;8.260;2022-10-16T02:31:43;6.72;;;1.50;;
32894;SDS011;19251;49.484;8.260;2022-10-16T02:36:50;5.55;;;3.33;;
32894;SDS011;19251;49.484;8.260;2022-10-16T02:41:54;3.12;;;1.80;;
32894;SDS011;19251;49.484;8.260;2022-10-16T02:46:56;6.72;;;2.00;;
32894;SDS011;19251;49.484;8.260;2022-10-16T02:51:58;6.68;;;1.95;;
32894;SDS011;19251;49.484;8.260;2022-10-16T02:57:01;2.85;;;1.12;;
32894;SDS011;19251;49.484;8.260;2022-10-16T03:02:03;2.95;;;1.40;;
32894;SDS011;19251;49.484;8.260;2022-10-16T03:07:05;7.57;;;1.20;;
32894;SDS011;19251;49.484;8.260;2022-10-16T03:12:07;3.65;;;1.40;;
32894;SDS011;19251;49.484;8.260;2022-10-16T03:17:09;4.22;;;0.98;;
32894;SDS011;19251;49.484;8.260;2022-10-16T03:22:11;5.07;;;1.20;;
32894;SDS011;19251;49.484;8.260;2022-10-16T03:27:14;10.50;;;1.48;;
32894;SDS011;19251;49.484;8.260;2022-10-16T03:32:16;3.15;;;1.33;;
32894;SDS011;19251;49.484;8.260;2022-10-16T03:37:18;0.70;;;0.50;;
32894;SDS011;19251;49.484;8.260;2022-10-16T03:42:20;1.65;;;0.88;;
32894;SDS011;19251;49.484;8.260;2022-10-16T03:47:22;2.28;;;0.75;;
32894;SDS011;19251;49.484;8.260;2022-10-16T03:52:26;5.80;;;1.17;;
32894;SDS011;19251;49.484;8.260;2022-10-16T03:57:28;2.53;;;0.57;;
32894;SDS011;19251;49.484;8.260;2022-10-16T04:02:30;1.55;;;1.10;;
32894;SDS011;19251;49.484;8.260;2022-10-16T04:07:32;4.40;;;0.60;;
32894;SDS011;19251;49.484;8.260;2022-10-16T04:12:35;0.73;;;0.62;;
32894;SDS011;19251;49.484;8.260;2022-10-16T04:17:37;11.77;;;1.33;;
32894;SDS011;19251;49.484;8.260;2022-10-16T04:22:40;6.60;;;0.70;;
32894;SDS011;19251;49.484;8.260;2022-10-16T04:27:43;0.70;;;0.70;;
32894;SDS011;19251;49.484;8.260;2022-10-16T04:32:50;1.02;;;0.62;;
32894;SDS011;19251;49.484;8.260;2022-10-16T04:37:53;1.52;;;0.80;;
32894;SDS011;19251;49.484;8.260;2022-10-16T04:42:55;1.75;;;0.95;;
32894;SDS011;19251;49.484;8.260;2022-10-16T04:47:58;3.65;;;1.48;;
32894;SDS011;19251;49.484;8.260;2022-10-16T04:53:00;7.65;;;0.95;;
32894;SDS011;19251;49.484;8.260;2022-10-16T04:58:03;1.92;;;0.60;;
32894;SDS011;19251;49.484;8.260;2022-10-16T05:03:05;2.47;;;1.25;;
32894;SDS011;19251;49.484;8.260;2022-10-16T05:08:10;1.25;;;0.62;;
32894;SDS011;19251;49.484;8.260;2022-10-16T05:13:13;1.30;;;1.00;;
32894;SDS011;19251;49.484;8.260;2022-10-16T05:18:15;2.17;;;1.35;;
32894;SDS011;19251;49.484;8.260;2022-10-16T05:23:18;1.87;;;1.12;;
32894;SDS011;19251;49.484;8.260;2022-10-16T05:28:20;1.42;;;1.08;;
32894;SDS011;19251;49.484;8.260;2022-10-16T05:33:23;1.75;;;1.00;;
32894;SDS011;19251;49.484;8.260;2022-10-16T05:38:27;4.28;;;1.45;;
32894;SDS011;19251;49.484;8.260;2022-10-16T05:43:29;0.70;;;0.70;;
32894;SDS011;19251;49.484;8.260;2022-10-16T05:48:31;2.47;;;2.28;;
32894;SDS011;19251;49.484;8.260;2022-10-16T05:53:35;6.95;;;4.95;;
32894;SDS011;19251;49.484;8.260;2022-10-16T05:58:38;4.07;;;3.08;;
32894;SDS011;19251;49.484;8.260;2022-10-16T06:03:45;2.58;;;1.73;;
32894;SDS011;19251;49.484;8.260;2022-10-16T06:08:48;8.75;;;5.25;;
32894;SDS011;19251;49.484;8.260;2022-10-16T06:13:51;12.73;;;3.97;;
32894;SDS011;19251;49.484;8.260;2022-10-16T06:18:55;3.40;;;1.77;;
32894;SDS011;19251;49.484;8.260;2022-10-16T06:28:59;2.92;;;0.85;;
32894;SDS011;19251;49.484;8.260;2022-10-16T06:34:02;1.15;;;1.05;;
32894;SDS011;19251;49.484;8.260;2022-10-16T06:39:06;5.28;;;1.58;;
32894;SDS011;19251;49.484;8.260;2022-10-16T06:44:08;2.05;;;1.08;;
32894;SDS011;19251;49.484;8.260;2022-10-16T06:49:11;7.87;;;2.62;;
32894;SDS011;19251;49.484;8.260;2022-10-16T06:54:14;6.30;;;1.80;;
32894;SDS011;19251;49.484;8.260;2022-10-16T06:59:18;1.73;;;1.62;;
32894;SDS011;19251;49.484;8.260;2022-10-16T07:04:20;1.73;;;1.27;;
32894;SDS011;19251;49.484;8.260;2022-10-16T07:09:22;1.47;;;1.37;;
32894;SDS011;19251;49.484;8.260;2022-10-16T07:14:24;2.20;;;1.98;;
32894;SDS011;19251;49.484;8.260;2022-10-16T07:19:26;3.58;;;2.22;;
32894;SDS011;19251;49.484;8.260;2022-10-16T07:24:34;2.33;;;2.10;;
32894;SDS011;19251;49.484;8.260;2022-10-16T07:29:36;10.90;;;8.75;;
32894;SDS011;19251;49.484;8.260;2022-10-16T07:34:38;4.47;;;3.60;;
32894;SDS011;19251;49.484;8.260;2022-10-16T07:39:41;4.47;;;2.78;;
32894;SDS011;19251;49.484;8.260;2022-10-16T07:44:43;4.87;;;3.42;;
32894;SDS011;19251;49.484;8.260;2022-10-16T07:49:45;6.30;;;3.25;;
32894;SDS011;19251;49.484;8.260;2022-10-16T07:54:47;3.25;;;2.50;;
32894;SDS011;19251;49.484;8.260;2022-10-16T07:59:49;7.87;;;3.12;;
32894;SDS011;19251;49.484;8.260;2022-10-16T08:04:51;8.43;;;3.10;;
32894;SDS011;19251;49.484;8.260;2022-10-16T08:09:53;2.58;;;1.70;;
32894;SDS011;19251;49.484;8.260;2022-10-16T08:14:58;5.00;;;1.87;;
32894;SDS011;19251;49.484;8.260;2022-10-16T08:20:00;5.93;;;3.12;;
32894;SDS011;19251;49.484;8.260;2022-10-16T08:25:03;5.07;;;2.60;;
32894;SDS011;19251;49.484;8.260;2022-10-16T08:30:05;7.05;;;2.03;;
32894;SDS011;19251;49.484;8.260;2022-10-16T08:35:09;10.68;;;2.55;;
32894;SDS011;19251;49.484;8.260;2022-10-16T08:40:25;6.68;;;2.45;;
32894;SDS011;19251;49.484;8.260;2022-10-16T08:50:45;3.22;;;1.60;;
32894;SDS011;19251;49.484;8.260;2022-10-16T08:55:51;5.82;;;2.30;;
32894;SDS011;19251;49.484;8.260;2022-10-16T09:00:59;1.92;;;1.27;;
32894;SDS011;19251;49.484;8.260;2022-10-16T09:06:16;3.30;;;2.12;;
32894;SDS011;19251;49.484;8.260;2022-10-16T09:16:59;4.57;;;3.10;;
32894;SDS011;19251;49.484;8.260;2022-10-16T09:22:14;5.12;;;2.17;;
32894;SDS011;19251;49.484;8.260;2022-10-16T09:27:18;12.48;;;6.90;;
32894;SDS011;19251;49.484;8.260;2022-10-16T09:32:20;11.32;;;5.37;;
32894;SDS011;19251;49.484;8.260;2022-10-16T09:37:23;4.12;;;2.78;;
32894;SDS011;19251;49.484;8.260;2022-10-16T09:42:30;9.70;;;2.87;;
32894;SDS011;19251;49.484;8.260;2022-10-16T09:47:36;5.87;;;2.95;;
32894;SDS011;19251;49.484;8.260;2022-10-16T09:52:41;6.53;;;3.72;;
32894;SDS011;19251;49.484;8.260;2022-10-16T10:01:11;8.15;;;2.53;;
32894;SDS011;19251;49.484;8.260;2022-10-16T10:11:39;2.65;;;1.67;;
32894;SDS011;19251;49.484;8.260;2022-10-16T10:16:52;8.35;;;1.98;;
32894;SDS011;19251;49.484;8.260;2022-10-16T10:22:13;6.57;;;1.87;;
32894;SDS011;19251;49.484;8.260;2022-10-16T10:27:28;1.87;;;1.65;;
32894;SDS011;19251;49.484;8.260;2022-10-16T10:43:56;4.70;;;2.72;;
32894;SDS011;19251;49.484;8.260;2022-10-16T10:59:48;9.15;;;2.08;;
32894;SDS011;19251;49.484;8.260;2022-10-16T11:10:24;4.10;;;2.00;;
32894;SDS011;19251;49.484;8.260;2022-10-16T11:15:31;9.02;;;1.87;;
32894;SDS011;19251;49.484;8.260;2022-10-16T11:20:40;2.78;;;2.15;;
32894;SDS011;19251;49.484;8.260;2022-10-16T11:25:44;1.35;;;1.05;;
32894;SDS011;19251;49.484;8.260;2022-10-16T11:30:50;3.40;;;1.67;;
32894;SDS011;19251;49.484;8.260;2022-10-16T11:36:06;5.07;;;1.65;;
32894;SDS011;19251;49.484;8.260;2022-10-16T11:41:26;6.05;;;2.05;;
32894;SDS011;19251;49.484;8.260;2022-10-16T11:46:46;1.65;;;1.45;;
32894;SDS011;19251;49.484;8.260;2022-10-16T11:52:25;4.60;;;1.90;;
32894;SDS011;19251;49.484;8.260;2022-10-16T11:57:39;8.45;;;1.70;;
32894;SDS011;19251;49.484;8.260;2022-10-16T12:08:14;5.53;;;1.77;;
32894;SDS011;19251;49.484;8.260;2022-10-16T12:13:34;6.15;;;1.45;;
32894;SDS011;19251;49.484;8.260;2022-10-16T12:18:45;2.42;;;1.30;;
32894;SDS011;19251;49.484;8.260;2022-10-16T12:23:52;4.03;;;1.37;;
32894;SDS011;19251;49.484;8.260;2022-10-16T12:34:42;2.87;;;1.67;;
32894;SDS011;19251;49.484;8.260;2022-10-16T12:39:45;5.60;;;3.28;;
32894;SDS011;19251;49.484;8.260;2022-10-16T12:44:48;3.60;;;1.67;;
32894;SDS011;19251;49.484;8.260;2022-10-16T12:49:51;1.90;;;1.48;;
32894;SDS011;19251;49.484;8.260;2022-10-16T12:54:56;2.75;;;1.67;;
32894;SDS011;19251;49.484;8.260;2022-10-16T13:05:30;4.82;;;1.50;;
32894;SDS011;19251;49.484;8.260;2022-10-16T13:32:14;4.22;;;2.00;;
32894;SDS011;19251;49.484;8.260;2022-10-16T13:37:18;2.65;;;1.65;;
32894;SDS011;19251;49.484;8.260;2022-10-16T13:47:29;2.92;;;1.95;;
32894;SDS011;19251;49.484;8.260;2022-10-16T13:52:32;3.10;;;1.75;;
32894;SDS011;19251;49.484;8.260;2022-10-16T14:02:37;2.90;;;1.50;;
32894;SDS011;19251;49.484;8.260;2022-10-16T14:07:41;1.73;;;1.50;;
32894;SDS011;19251;49.484;8.260;2022-10-16T14:12:44;2.80;;;1.92;;
32894;SDS011;19251;49.484;8.260;2022-10-16T14:17:49;7.50;;;1.92;;
32894;SDS011;19251;49.484;8.260;2022-10-16T14:23:54;3.25;;;1.17;;
32894;SDS011;19251;49.484;8.260;2022-10-16T14:28:30;4.60;;;2.62;;
32894;SDS011;19251;49.484;8.260;2022-10-16T14:33:33;9.95;;;2.10;;
32894;SDS011;19251;49.484;8.260;2022-10-16T14:38:36;9.85;;;4.57;;
32894;SDS011;19251;49.484;8.260;2022-10-16T14:43:41;4.00;;;2.33;;
32894;SDS011;19251;49.484;8.260;2022-10-16T14:48:50;3.35;;;2.05;;
32894;SDS011;19251;49.484;8.260;2022-10-16T14:53:55;3.30;;;2.25;;
32894;SDS011;19251;49.484;8.260;2022-10-16T14:59:01;5.47;;;2.55;;
32894;SDS011;19251;49.484;8.260;2022-10-16T15:04:04;3.50;;;2.28;;
32894;SDS011;19251;49.484;8.260;2022-10-16T15:09:06;16.70;;;4.75;;
32894;SDS011;19251;49.484;8.260;2022-10-16T15:14:12;4.12;;;2.33;;
32894;SDS011;19251;49.484;8.260;2022-10-16T15:19:20;7.62;;;2.08;;
32894;SDS011;19251;49.484;8.260;2022-10-16T15:24:22;1.77;;;1.20;;
32894;SDS011;19251;49.484;8.260;2022-10-16T15:29:24;8.38;;;1.83;;
32894;SDS011;19251;49.484;8.260;2022-10-16T15:34:26;5.78;;;2.97;;
32894;SDS011;19251;49.484;8.260;2022-10-16T15:39:28;13.27;;;7.87;;
32894;SDS011;19251;49.484;8.260;2022-10-16T15:44:30;14.98;;;9.55;;
32894;SDS011;19251;49.484;8.260;2022-10-16T15:54:35;7.78;;;3.55;;
32894;SDS011;19251;49.484;8.260;2022-10-16T15:59:37;5.53;;;3.83;;
32894;SDS011;19251;49.484;8.260;2022-10-16T16:04:39;3.20;;;1.95;;
32894;SDS011;19251;49.484;8.260;2022-10-16T16:09:45;5.28;;;1.80;;
32894;SDS011;19251;49.484;8.260;2022-10-16T16:14:47;20.98;;;2.95;;
32894;SDS011;19251;49.484;8.260;2022-10-16T16:19:50;5.62;;;2.30;;
32894;SDS011;19251;49.484;8.260;2022-10-16T16:24:53;3.50;;;2.10;;
32894;SDS011;19251;49.484;8.260;2022-10-16T16:29:55;8.50;;;2.42;;
32894;SDS011;19251;49.484;8.260;2022-10-16T16:39:59;5.32;;;2.95;;
32894;SDS011;19251;49.484;8.260;2022-10-16T16:45:01;7.62;;;3.37;;
32894;SDS011;19251;49.484;8.260;2022-10-16T16:50:04;5.10;;;3.60;;
32894;SDS011;19251;49.484;8.260;2022-10-16T16:55:08;9.50;;;2.78;;
32894;SDS011;19251;49.484;8.260;2022-10-16T17:00:10;7.05;;;2.87;;
32894;SDS011;19251;49.484;8.260;2022-10-16T17:10:15;18.30;;;8.27;;
32894;SDS011;19251;49.484;8.260;2022-10-16T17:15:17;14.48;;;9.27;;
32894;SDS011;19251;49.484;8.260;2022-10-16T17:20:19;13.13;;;9.20;;
32894;SDS011;19251;49.484;8.260;2022-10-16T17:25:22;22.95;;;12.32;;
32894;SDS011;19251;49.484;8.260;2022-10-16T17:30:26;13.70;;;9.48;;
32894;SDS011;19251;49.484;8.260;2022-10-16T17:35:28;11.50;;;8.73;;
32894;SDS011;19251;49.484;8.260;2022-10-16T17:40:30;10.90;;;7.03;;
32894;SDS011;19251;49.484;8.260;2022-10-16T17:45:35;12.00;;;8.13;;
32894;SDS011;19251;49.484;8.260;2022-10-16T17:50:40;13.85;;;8.25;;
32894;SDS011;19251;49.484;8.260;2022-10-16T17:55:43;15.82;;;6.95;;
32894;SDS011;19251;49.484;8.260;2022-10-16T18:00:45;12.07;;;4.47;;
32894;SDS011;19251;49.484;8.260;2022-10-16T18:05:47;5.18;;;2.33;;
32894;SDS011;19251;49.484;8.260;2022-10-16T18:10:50;2.05;;;1.58;;
32894;SDS011;19251;49.484;8.260;2022-10-16T18:16:26;1.95;;;1.00;;
32894;SDS011;19251;49.484;8.260;2022-10-16T18:21:21;2.35;;;1.55;;
32894;SDS011;19251;49.484;8.260;2022-10-16T18:26:24;2.50;;;1.90;;
32894;SDS011;19251;49.484;8.260;2022-10-16T18:31:27;3.28;;;2.15;;
32894;SDS011;19251;49.484;8.260;2022-10-16T18:36:30;9.38;;;2.30;;
32894;SDS011;19251;49.484;8.260;2022-10-16T18:41:34;5.72;;;3.70;;
32894;SDS011;19251;49.484;8.260;2022-10-16T18:46:37;5.03;;;3.70;;
32894;SDS011;19251;49.484;8.260;2022-10-16T18:51:40;4.57;;;3.22;;
32894;SDS011;19251;49.484;8.260;2022-10-16T18:56:44;2.62;;;2.35;;
32894;SDS011;19251;49.484;8.260;2022-10-16T19:01:47;3.25;;;2.92;;
32894;SDS011;19251;49.484;8.260;2022-10-16T19:06:51;3.03;;;2.28;;
32894;SDS011;19251;49.484;8.260;2022-10-16T19:11:54;9.75;;;2.60;;
32894;SDS011;19251;49.484;8.260;2022-10-16T19:16:58;3.65;;;2.55;;
32894;SDS011;19251;49.484;8.260;2022-10-16T19:22:00;4.40;;;2.10;;
32894;SDS011;19251;49.484;8.260;2022-10-16T19:27:12;3.80;;;2.30;;
32894;SDS011;19251;49.484;8.260;2022-10-16T19:32:14;8.38;;;2.78;;
32894;SDS011;19251;49.484;8.260;2022-10-16T19:37:16;5.82;;;3.08;;
32894;SDS011;19251;49.484;8.260;2022-10-16T19:42:18;6.53;;;2.22;;
32894;SDS011;19251;49.484;8.260;2022-10-16T19:47:21;2.25;;;1.35;;
32894;SDS011;19251;49.484;8.260;2022-10-16T19:52:24;3.53;;;1.12;;
32894;SDS011;19251;49.484;8.260;2022-10-16T20:02:28;1.42;;;0.60;;
32894;SDS011;19251;49.484;8.260;2022-10-16T20:07:31;4.30;;;1.02;;
32894;SDS011;19251;49.484;8.260;2022-10-16T20:12:35;3.10;;;2.12;;
32894;SDS011;19251;49.484;8.260;2022-10-16T20:17:37;1.60;;;1.30;;
32894;SDS011;19251;49.484;8.260;2022-10-16T20:22:40;4.47;;;1.17;;
32894;SDS011;19251;49.484;8.260;2022-10-16T20:27:42;2.90;;;1.23;;
32894;SDS011;19251;49.484;8.260;2022-10-16T20:32:44;3.70;;;1.50;;
32894;SDS011;19251;49.484;8.260;2022-10-16T20:37:46;3.60;;;1.50;;
32894;SDS011;19251;49.484;8.260;2022-10-16T20:42:49;4.03;;;2.20;;
32894;SDS011;19251;49.484;8.260;2022-10-16T20:47:51;8.33;;;1.70;;
32894;SDS011;19251;49.484;8.260;2022-10-16T20:52:53;3.62;;;1.87;;
32894;SDS011;19251;49.484;8.260;2022-10-16T20:57:55;5.53;;;2.20;;
32894;SDS011;19251;49.484;8.260;2022-10-16T21:02:58;10.20;;;3.42;;
32894;SDS011;19251;49.484;8.260;2022-10-16T21:08:00;23.17;;;3.78;;
32894;SDS011;19251;49.484;8.260;2022-10-16T21:13:02;4.30;;;2.70;;
32894;SDS011;19251;49.484;8.260;2022-10-16T21:18:05;8.95;;;2.40;;
32894;SDS011;19251;49.484;8.260;2022-10-16T21:23:07;4.55;;;3.17;;
32894;SDS011;19251;49.484;8.260;2022-10-16T21:28:09;4.50;;;3.10;;
32894;SDS011;19251;49.484;8.260;2022-10-16T21:33:11;8.27;;;3.50;;
32894;SDS011;19251;49.484;8.260;2022-10-16T21:38:13;3.95;;;2.80;;
32894;SDS011;19251;49.484;8.260;2022-10-16T21:43:15;9.18;;;2.90;;
32894;SDS011;19251;49.484;8.260;2022-10-16T21:48:17;7.93;;;3.00;;
32894;SDS011;19251;49.484;8.260;2022-10-16T21:53:20;8.45;;;2.92;;
32894;SDS011;19251;49.484;8.260;2022-10-16T21:58:22;1.35;;;1.20;;
32894;SDS011;19251;49.484;8.260;2022-10-16T22:03:24;1.42;;;0.90;;
32894;SDS011;19251;49.484;8.260;2022-10-16T22:08:26;0.73;;;0.57;;
32894;SDS011;19251;49.484;8.260;2022-10-16T22:13:28;3.72;;;1.15;;
32894;SDS011;19251;49.484;8.260;2022-10-16T22:18:31;2.95;;;1.30;;
32894;SDS011;19251;49.484;8.260;2022-10-16T22:23:34;9.00;;;1.23;;
32894;SDS011;19251;49.484;8.260;2022-10-16T22:28:37;4.07;;;1.50;;
32894;SDS011;19251;49.484;8.260;2022-10-16T22:33:40;1.25;;;1.08;;
32894;SDS011;19251;49.484;8.260;2022-10-16T22:43:46;1.67;;;1.02;;
32894;SDS011;19251;49.484;8.260;2022-10-16T22:48:49;1.40;;;1.17;;
32894;SDS011;19251;49.484;8.260;2022-10-16T22:53:51;7.30;;;1.87;;
32894;SDS011;19251;49.484;8.260;2022-10-16T22:58:54;15.77;;;3.00;;
32894;SDS011;19251;49.484;8.260;2022-10-16T23:03:56;3.37;;;2.45;;
32894;SDS011;19251;49.484;8.260;2022-10-16T23:08:59;9.05;;;2.37;;
32894;SDS011;19251;49.484;8.260;2022-10-16T23:14:02;2.62;;;0.80;;
32894;SDS011;19251;49.484;8.260;2022-10-16T23:19:04;3.07;;;1.47;;
32894;SDS011;19251;49.484;8.260;2022-10-16T23:24:06;3.10;;;2.30;;
32894;SDS011;19251;49.484;8.260;2022-10-16T23:29:09;5.53;;;3.47;;
32894;SDS011;19251;49.484;8.260;2022-10-16T23:34:11;4.07;;;2.95;;
32894;SDS011;19251;49.484;8.260;2022-10-16T23:39:13;3.83;;;2.67;;
32894;SDS011;19251;49.484;8.260;2022-10-16T23:44:15;2.05;;;1.85;;
32894;SDS011;19251;49.484;8.260;2022-10-16T23:49:18;4.70;;;3.08;;
32894;SDS011;19251;49.484;8.260;2022-10-16T23:54:20;5.37;;;2.93;;
32894;SDS011;19251;49.484;8.260;2022-10-16T23:59:22;3.40;;;2.97;;
